sensor_id;sensor_type;location;lat;lon;timestamp;temperature;humidity
21830;DHT22;11077;50.264;6.798;2024-01-25T00:01:55;5.60;99.90
21830;DHT22;11077;50.264;6.798;2024-01-25T00:04:22;5.60;99.90
21830;DHT22;11077;50.264;6.798;2024-01-25T00:06:49;5.60;99.90
21830;DHT22;11077;50.264;6.798;2024-01-25T00:09:16;5.60;99.90
21830;DHT22;11077;50.264;6.798;2024-01-25T00:11:43;5.50;99.90
21830;DHT22;11077;50.264;6.798;2024-01-25T00:14:12;5.50;99.90
21830;DHT22;11077;50.264;6.798;2024-01-25T00:16:40;5.50;99.90
21830;DHT22;11077;50.264;6.798;2024-01-25T00:19:08;5.40;99.90
21830;DHT22;11077;50.264;6.798;2024-01-25T00:21:35;5.40;99.90
21830;DHT22;11077;50.264;6.798;2024-01-25T00:24:02;5.40;99.90
21830;DHT22;11077;50.264;6.798;2024-01-25T00:26:29;5.40;99.90
21830;DHT22;11077;50.264;6.798;2024-01-25T00:28:56;5.40;99.90
21830;DHT22;11077;50.264;6.798;2024-01-25T00:31:24;5.40;99.90
21830;DHT22;11077;50.264;6.798;2024-01-25T00:33:52;5.40;99.90
21830;DHT22;11077;50.264;6.798;2024-01-25T00:36:19;5.40;99.90
21830;DHT22;11077;50.264;6.798;2024-01-25T00:38:47;5.40;99.90
21830;DHT22;11077;50.264;6.798;2024-01-25T00:41:17;5.40;99.90
21830;DHT22;11077;50.264;6.798;2024-01-25T00:43:46;5.40;99.90
21830;DHT22;11077;50.264;6.798;2024-01-25T00:46:14;5.50;99.90
21830;DHT22;11077;50.264;6.798;2024-01-25T00:48:43;5.40;99.90
21830;DHT22;11077;50.264;6.798;2024-01-25T00:51:14;5.40;99.90
21830;DHT22;11077;50.264;6.798;2024-01-25T00:53:42;5.40;99.90
21830;DHT22;11077;50.264;6.798;2024-01-25T00:56:11;5.40;99.90
21830;DHT22;11077;50.264;6.798;2024-01-25T00:58:38;5.40;99.90
21830;DHT22;11077;50.264;6.798;2024-01-25T01:01:06;5.40;99.90
21830;DHT22;11077;50.264;6.798;2024-01-25T01:03:35;5.40;99.90
21830;DHT22;11077;50.264;6.798;2024-01-25T01:06:05;5.40;99.90
21830;DHT22;11077;50.264;6.798;2024-01-25T01:08:33;5.40;99.90
21830;DHT22;11077;50.264;6.798;2024-01-25T01:11:00;5.40;99.90
21830;DHT22;11077;50.264;6.798;2024-01-25T01:13:28;5.50;99.90
21830;DHT22;11077;50.264;6.798;2024-01-25T01:15:55;5.50;99.90
21830;DHT22;11077;50.264;6.798;2024-01-25T01:18:22;5.50;99.90
21830;DHT22;11077;50.264;6.798;2024-01-25T01:20:49;5.50;99.90
21830;DHT22;11077;50.264;6.798;2024-01-25T01:23:17;5.50;99.90
21830;DHT22;11077;50.264;6.798;2024-01-25T01:25:44;5.60;99.90
21830;DHT22;11077;50.264;6.798;2024-01-25T01:28:11;5.60;99.90
21830;DHT22;11077;50.264;6.798;2024-01-25T01:30:39;5.60;99.90
21830;DHT22;11077;50.264;6.798;2024-01-25T01:33:07;5.60;99.90
21830;DHT22;11077;50.264;6.798;2024-01-25T01:35:35;5.60;99.90
21830;DHT22;11077;50.264;6.798;2024-01-25T01:38:02;5.50;99.90
21830;DHT22;11077;50.264;6.798;2024-01-25T01:40:31;5.50;99.90
21830;DHT22;11077;50.264;6.798;2024-01-25T01:43:01;5.50;99.90
21830;DHT22;11077;50.264;6.798;2024-01-25T01:45:28;5.50;99.90
21830;DHT22;11077;50.264;6.798;2024-01-25T01:47:56;5.50;99.90
21830;DHT22;11077;50.264;6.798;2024-01-25T01:50:23;5.40;99.90
21830;DHT22;11077;50.264;6.798;2024-01-25T01:52:51;5.50;99.90
21830;DHT22;11077;50.264;6.798;2024-01-25T01:55:19;5.40;99.90
21830;DHT22;11077;50.264;6.798;2024-01-25T01:57:47;5.40;99.90
21830;DHT22;11077;50.264;6.798;2024-01-25T02:00:15;5.40;99.90
21830;DHT22;11077;50.264;6.798;2024-01-25T02:02:43;5.40;99.90
21830;DHT22;11077;50.264;6.798;2024-01-25T02:05:10;5.40;99.90
21830;DHT22;11077;50.264;6.798;2024-01-25T02:07:39;5.40;99.90
21830;DHT22;11077;50.264;6.798;2024-01-25T02:10:07;5.40;99.90
21830;DHT22;11077;50.264;6.798;2024-01-25T02:12:34;5.40;99.90
21830;DHT22;11077;50.264;6.798;2024-01-25T02:15:04;5.40;99.90
21830;DHT22;11077;50.264;6.798;2024-01-25T02:17:31;5.50;99.90
21830;DHT22;11077;50.264;6.798;2024-01-25T02:19:58;5.50;99.90
21830;DHT22;11077;50.264;6.798;2024-01-25T02:22:27;5.50;99.90
21830;DHT22;11077;50.264;6.798;2024-01-25T02:24:54;5.50;99.90
21830;DHT22;11077;50.264;6.798;2024-01-25T02:27:21;5.50;99.90
21830;DHT22;11077;50.264;6.798;2024-01-25T02:29:48;5.50;99.90
21830;DHT22;11077;50.264;6.798;2024-01-25T02:32:16;5.60;99.90
21830;DHT22;11077;50.264;6.798;2024-01-25T02:34:43;5.50;99.90
21830;DHT22;11077;50.264;6.798;2024-01-25T02:37:10;5.60;99.90
21830;DHT22;11077;50.264;6.798;2024-01-25T02:39:39;5.50;99.90
21830;DHT22;11077;50.264;6.798;2024-01-25T02:42:06;5.50;99.90
21830;DHT22;11077;50.264;6.798;2024-01-25T02:44:34;5.60;99.90
21830;DHT22;11077;50.264;6.798;2024-01-25T02:47:01;5.50;99.90
21830;DHT22;11077;50.264;6.798;2024-01-25T02:49:28;5.60;99.90
21830;DHT22;11077;50.264;6.798;2024-01-25T02:51:55;5.60;99.90
21830;DHT22;11077;50.264;6.798;2024-01-25T02:54:22;5.50;99.90
21830;DHT22;11077;50.264;6.798;2024-01-25T02:56:50;5.50;99.90
21830;DHT22;11077;50.264;6.798;2024-01-25T02:59:17;5.40;99.90
21830;DHT22;11077;50.264;6.798;2024-01-25T03:01:44;5.50;99.90
21830;DHT22;11077;50.264;6.798;2024-01-25T03:04:11;5.50;99.90
21830;DHT22;11077;50.264;6.798;2024-01-25T03:06:39;5.40;99.90
21830;DHT22;11077;50.264;6.798;2024-01-25T03:09:06;5.40;99.90
21830;DHT22;11077;50.264;6.798;2024-01-25T03:11:33;5.30;99.90
21830;DHT22;11077;50.264;6.798;2024-01-25T03:14:02;5.30;99.90
21830;DHT22;11077;50.264;6.798;2024-01-25T03:16:29;5.30;99.90
21830;DHT22;11077;50.264;6.798;2024-01-25T03:18:56;5.20;99.90
21830;DHT22;11077;50.264;6.798;2024-01-25T03:21:23;5.20;99.90
21830;DHT22;11077;50.264;6.798;2024-01-25T03:26:17;5.10;99.90
21830;DHT22;11077;50.264;6.798;2024-01-25T03:28:44;5.10;99.90
21830;DHT22;11077;50.264;6.798;2024-01-25T03:31:13;5.10;99.90
21830;DHT22;11077;50.264;6.798;2024-01-25T03:33:40;5.10;99.90
21830;DHT22;11077;50.264;6.798;2024-01-25T03:36:07;5.10;99.90
21830;DHT22;11077;50.264;6.798;2024-01-25T03:38:34;5.10;99.90
21830;DHT22;11077;50.264;6.798;2024-01-25T03:41:01;5.00;99.90
21830;DHT22;11077;50.264;6.798;2024-01-25T03:43:28;5.00;99.90
21830;DHT22;11077;50.264;6.798;2024-01-25T03:45:56;4.90;99.90
21830;DHT22;11077;50.264;6.798;2024-01-25T03:48:24;4.90;99.90
21830;DHT22;11077;50.264;6.798;2024-01-25T03:50:51;4.90;99.90
21830;DHT22;11077;50.264;6.798;2024-01-25T03:53:21;4.80;99.90
21830;DHT22;11077;50.264;6.798;2024-01-25T03:55:49;4.80;99.90
21830;DHT22;11077;50.264;6.798;2024-01-25T03:58:17;4.70;99.90
21830;DHT22;11077;50.264;6.798;2024-01-25T04:00:44;4.70;99.90
21830;DHT22;11077;50.264;6.798;2024-01-25T04:03:12;4.70;99.90
21830;DHT22;11077;50.264;6.798;2024-01-25T04:05:40;4.60;99.90
21830;DHT22;11077;50.264;6.798;2024-01-25T04:08:08;4.60;99.90
21830;DHT22;11077;50.264;6.798;2024-01-25T04:10:35;4.50;99.90
21830;DHT22;11077;50.264;6.798;2024-01-25T04:13:02;4.50;99.90
21830;DHT22;11077;50.264;6.798;2024-01-25T04:15:30;4.50;99.90
21830;DHT22;11077;50.264;6.798;2024-01-25T04:17:57;4.50;99.90
21830;DHT22;11077;50.264;6.798;2024-01-25T04:20:24;4.50;99.90
21830;DHT22;11077;50.264;6.798;2024-01-25T04:22:52;4.50;99.90
21830;DHT22;11077;50.264;6.798;2024-01-25T04:25:19;4.40;99.90
21830;DHT22;11077;50.264;6.798;2024-01-25T04:27:46;4.40;99.90
21830;DHT22;11077;50.264;6.798;2024-01-25T04:30:14;4.40;99.90
21830;DHT22;11077;50.264;6.798;2024-01-25T04:32:41;4.30;99.90
21830;DHT22;11077;50.264;6.798;2024-01-25T04:35:08;4.30;99.90
21830;DHT22;11077;50.264;6.798;2024-01-25T04:37:36;4.30;99.90
21830;DHT22;11077;50.264;6.798;2024-01-25T04:40:05;4.30;99.90
21830;DHT22;11077;50.264;6.798;2024-01-25T04:42:32;4.30;99.90
21830;DHT22;11077;50.264;6.798;2024-01-25T04:45:00;4.30;99.90
21830;DHT22;11077;50.264;6.798;2024-01-25T04:47:27;4.30;99.90
21830;DHT22;11077;50.264;6.798;2024-01-25T04:49:54;4.20;99.90
21830;DHT22;11077;50.264;6.798;2024-01-25T04:52:21;4.20;99.90
21830;DHT22;11077;50.264;6.798;2024-01-25T04:54:48;4.10;99.90
21830;DHT22;11077;50.264;6.798;2024-01-25T04:57:17;4.10;99.90
21830;DHT22;11077;50.264;6.798;2024-01-25T04:59:44;4.10;99.90
21830;DHT22;11077;50.264;6.798;2024-01-25T05:02:11;4.10;99.90
21830;DHT22;11077;50.264;6.798;2024-01-25T05:04:38;4.10;99.90
21830;DHT22;11077;50.264;6.798;2024-01-25T05:07:05;4.10;99.90
21830;DHT22;11077;50.264;6.798;2024-01-25T05:09:32;4.10;99.90
21830;DHT22;11077;50.264;6.798;2024-01-25T05:11:59;4.00;99.90
21830;DHT22;11077;50.264;6.798;2024-01-25T05:14:29;4.00;99.90
21830;DHT22;11077;50.264;6.798;2024-01-25T05:16:56;4.00;99.90
21830;DHT22;11077;50.264;6.798;2024-01-25T05:19:23;4.00;99.90
21830;DHT22;11077;50.264;6.798;2024-01-25T05:21:51;4.00;99.90
21830;DHT22;11077;50.264;6.798;2024-01-25T05:24:18;4.00;99.90
21830;DHT22;11077;50.264;6.798;2024-01-25T05:26:45;3.90;99.90
21830;DHT22;11077;50.264;6.798;2024-01-25T05:29:12;3.80;99.90
21830;DHT22;11077;50.264;6.798;2024-01-25T05:31:40;3.80;99.90
21830;DHT22;11077;50.264;6.798;2024-01-25T05:34:07;3.80;99.90
21830;DHT22;11077;50.264;6.798;2024-01-25T05:36:34;3.80;99.90
21830;DHT22;11077;50.264;6.798;2024-01-25T05:39:01;3.90;99.90
21830;DHT22;11077;50.264;6.798;2024-01-25T05:41:32;3.90;99.90
21830;DHT22;11077;50.264;6.798;2024-01-25T05:43:59;3.90;99.90
21830;DHT22;11077;50.264;6.798;2024-01-25T05:46:26;3.90;99.90
21830;DHT22;11077;50.264;6.798;2024-01-25T05:48:55;3.90;99.90
21830;DHT22;11077;50.264;6.798;2024-01-25T05:51:22;4.00;99.90
21830;DHT22;11077;50.264;6.798;2024-01-25T05:53:49;3.90;99.90
21830;DHT22;11077;50.264;6.798;2024-01-25T05:56:16;3.80;99.90
21830;DHT22;11077;50.264;6.798;2024-01-25T05:58:43;3.80;99.90
21830;DHT22;11077;50.264;6.798;2024-01-25T06:01:10;3.80;99.90
21830;DHT22;11077;50.264;6.798;2024-01-25T06:03:37;3.70;99.90
21830;DHT22;11077;50.264;6.798;2024-01-25T06:06:06;3.60;99.90
21830;DHT22;11077;50.264;6.798;2024-01-25T06:08:34;3.50;99.90
21830;DHT22;11077;50.264;6.798;2024-01-25T06:11:01;3.50;99.90
21830;DHT22;11077;50.264;6.798;2024-01-25T06:13:28;3.50;99.90
21830;DHT22;11077;50.264;6.798;2024-01-25T06:15:55;3.40;99.90
21830;DHT22;11077;50.264;6.798;2024-01-25T06:18:22;3.50;99.90
21830;DHT22;11077;50.264;6.798;2024-01-25T06:20:49;3.50;99.90
21830;DHT22;11077;50.264;6.798;2024-01-25T06:23:18;3.50;99.90
21830;DHT22;11077;50.264;6.798;2024-01-25T06:25:45;3.50;99.90
21830;DHT22;11077;50.264;6.798;2024-01-25T06:28:12;3.40;99.90
21830;DHT22;11077;50.264;6.798;2024-01-25T06:30:39;3.20;99.90
21830;DHT22;11077;50.264;6.798;2024-01-25T06:33:06;3.10;99.90
21830;DHT22;11077;50.264;6.798;2024-01-25T06:35:33;3.10;99.90
21830;DHT22;11077;50.264;6.798;2024-01-25T06:38:00;3.00;99.90
21830;DHT22;11077;50.264;6.798;2024-01-25T06:40:29;2.90;99.90
21830;DHT22;11077;50.264;6.798;2024-01-25T06:42:56;2.90;99.90
21830;DHT22;11077;50.264;6.798;2024-01-25T06:45:23;2.80;99.90
21830;DHT22;11077;50.264;6.798;2024-01-25T06:47:50;2.80;99.90
21830;DHT22;11077;50.264;6.798;2024-01-25T06:50:17;2.80;99.90
21830;DHT22;11077;50.264;6.798;2024-01-25T06:52:44;2.70;99.90
21830;DHT22;11077;50.264;6.798;2024-01-25T06:55:11;2.70;99.90
21830;DHT22;11077;50.264;6.798;2024-01-25T06:57:40;2.60;99.90
21830;DHT22;11077;50.264;6.798;2024-01-25T07:00:08;2.60;99.90
21830;DHT22;11077;50.264;6.798;2024-01-25T07:02:37;2.50;99.90
21830;DHT22;11077;50.264;6.798;2024-01-25T07:05:05;2.40;99.90
21830;DHT22;11077;50.264;6.798;2024-01-25T07:07:32;2.30;99.90
21830;DHT22;11077;50.264;6.798;2024-01-25T07:09:59;2.30;99.90
21830;DHT22;11077;50.264;6.798;2024-01-25T07:12:26;2.30;99.90
21830;DHT22;11077;50.264;6.798;2024-01-25T07:14:55;2.30;99.90
21830;DHT22;11077;50.264;6.798;2024-01-25T07:17:22;2.20;99.90
21830;DHT22;11077;50.264;6.798;2024-01-25T07:19:49;2.20;99.90
21830;DHT22;11077;50.264;6.798;2024-01-25T07:22:16;2.20;99.90
21830;DHT22;11077;50.264;6.798;2024-01-25T07:24:44;2.20;99.90
21830;DHT22;11077;50.264;6.798;2024-01-25T07:27:11;2.20;99.90
21830;DHT22;11077;50.264;6.798;2024-01-25T07:29:38;2.20;99.90
21830;DHT22;11077;50.264;6.798;2024-01-25T07:32:07;2.20;99.90
21830;DHT22;11077;50.264;6.798;2024-01-25T07:34:34;2.10;99.90
21830;DHT22;11077;50.264;6.798;2024-01-25T07:37:01;2.10;99.90
21830;DHT22;11077;50.264;6.798;2024-01-25T07:39:28;2.10;99.90
21830;DHT22;11077;50.264;6.798;2024-01-25T07:41:55;2.10;99.90
21830;DHT22;11077;50.264;6.798;2024-01-25T07:44:22;2.10;99.90
21830;DHT22;11077;50.264;6.798;2024-01-25T07:46:49;1.90;99.90
21830;DHT22;11077;50.264;6.798;2024-01-25T07:49:18;1.80;99.90
21830;DHT22;11077;50.264;6.798;2024-01-25T07:51:45;1.80;99.90
21830;DHT22;11077;50.264;6.798;2024-01-25T07:54:12;1.90;99.90
21830;DHT22;11077;50.264;6.798;2024-01-25T07:56:40;1.90;99.90
21830;DHT22;11077;50.264;6.798;2024-01-25T07:59:07;2.00;99.90
21830;DHT22;11077;50.264;6.798;2024-01-25T08:01:34;1.90;99.90
21830;DHT22;11077;50.264;6.798;2024-01-25T08:04:01;1.90;99.90
21830;DHT22;11077;50.264;6.798;2024-01-25T08:06:30;1.90;99.90
21830;DHT22;11077;50.264;6.798;2024-01-25T08:08:57;1.90;99.90
21830;DHT22;11077;50.264;6.798;2024-01-25T08:11:24;2.00;99.90
21830;DHT22;11077;50.264;6.798;2024-01-25T08:13:51;2.00;99.90
21830;DHT22;11077;50.264;6.798;2024-01-25T08:16:18;2.00;99.90
21830;DHT22;11077;50.264;6.798;2024-01-25T08:18:46;2.00;99.90
21830;DHT22;11077;50.264;6.798;2024-01-25T08:21:13;2.10;99.90
21830;DHT22;11077;50.264;6.798;2024-01-25T08:23:42;2.20;99.90
21830;DHT22;11077;50.264;6.798;2024-01-25T08:26:09;2.20;99.90
21830;DHT22;11077;50.264;6.798;2024-01-25T08:28:39;2.30;99.90
21830;DHT22;11077;50.264;6.798;2024-01-25T08:31:06;2.30;99.90
21830;DHT22;11077;50.264;6.798;2024-01-25T08:33:33;2.30;99.90
21830;DHT22;11077;50.264;6.798;2024-01-25T08:36:00;2.40;99.90
21830;DHT22;11077;50.264;6.798;2024-01-25T08:38:27;2.50;99.90
21830;DHT22;11077;50.264;6.798;2024-01-25T08:40:56;2.60;99.90
21830;DHT22;11077;50.264;6.798;2024-01-25T08:43:23;2.70;99.90
21830;DHT22;11077;50.264;6.798;2024-01-25T08:45:50;2.80;99.90
21830;DHT22;11077;50.264;6.798;2024-01-25T08:48:17;2.90;99.90
21830;DHT22;11077;50.264;6.798;2024-01-25T08:50:44;3.00;99.90
21830;DHT22;11077;50.264;6.798;2024-01-25T08:53:11;3.00;99.90
21830;DHT22;11077;50.264;6.798;2024-01-25T08:55:39;3.10;99.90
21830;DHT22;11077;50.264;6.798;2024-01-25T08:58:08;3.30;99.90
21830;DHT22;11077;50.264;6.798;2024-01-25T09:00:35;3.40;99.90
21830;DHT22;11077;50.264;6.798;2024-01-25T09:03:02;3.50;99.90
21830;DHT22;11077;50.264;6.798;2024-01-25T09:05:29;3.50;99.90
21830;DHT22;11077;50.264;6.798;2024-01-25T09:07:59;3.60;99.90
21830;DHT22;11077;50.264;6.798;2024-01-25T09:10:27;3.70;99.90
21830;DHT22;11077;50.264;6.798;2024-01-25T09:12:54;3.80;99.90
21830;DHT22;11077;50.264;6.798;2024-01-25T09:15:22;4.00;99.90
21830;DHT22;11077;50.264;6.798;2024-01-25T09:17:49;4.00;99.90
21830;DHT22;11077;50.264;6.798;2024-01-25T09:20:16;4.10;99.90
21830;DHT22;11077;50.264;6.798;2024-01-25T09:22:44;4.20;99.90
21830;DHT22;11077;50.264;6.798;2024-01-25T09:25:12;4.30;99.90
21830;DHT22;11077;50.264;6.798;2024-01-25T09:27:39;4.40;99.90
21830;DHT22;11077;50.264;6.798;2024-01-25T09:30:07;4.50;99.90
21830;DHT22;11077;50.264;6.798;2024-01-25T09:32:35;4.70;99.90
21830;DHT22;11077;50.264;6.798;2024-01-25T09:35:03;4.80;99.90
21830;DHT22;11077;50.264;6.798;2024-01-25T09:37:30;5.00;99.90
21830;DHT22;11077;50.264;6.798;2024-01-25T09:39:57;5.20;99.90
21830;DHT22;11077;50.264;6.798;2024-01-25T09:42:25;5.50;99.90
21830;DHT22;11077;50.264;6.798;2024-01-25T09:44:54;5.60;99.90
21830;DHT22;11077;50.264;6.798;2024-01-25T09:47:21;5.80;99.90
21830;DHT22;11077;50.264;6.798;2024-01-25T09:49:50;5.90;99.90
21830;DHT22;11077;50.264;6.798;2024-01-25T09:52:19;6.00;99.90
21830;DHT22;11077;50.264;6.798;2024-01-25T09:54:53;6.10;99.90
21830;DHT22;11077;50.264;6.798;2024-01-25T09:57:24;6.30;99.90
21830;DHT22;11077;50.264;6.798;2024-01-25T09:59:53;6.40;99.90
21830;DHT22;11077;50.264;6.798;2024-01-25T10:02:21;6.50;99.90
21830;DHT22;11077;50.264;6.798;2024-01-25T10:04:50;6.50;99.90
21830;DHT22;11077;50.264;6.798;2024-01-25T10:07:37;6.60;99.90
21830;DHT22;11077;50.264;6.798;2024-01-25T10:10:05;6.60;99.90
21830;DHT22;11077;50.264;6.798;2024-01-25T10:12:32;6.70;99.90
21830;DHT22;11077;50.264;6.798;2024-01-25T10:15:00;6.70;99.90
21830;DHT22;11077;50.264;6.798;2024-01-25T10:17:28;6.50;99.90
21830;DHT22;11077;50.264;6.798;2024-01-25T10:19:57;6.50;99.90
21830;DHT22;11077;50.264;6.798;2024-01-25T10:22:24;6.50;99.90
21830;DHT22;11077;50.264;6.798;2024-01-25T10:24:53;6.50;99.90
21830;DHT22;11077;50.264;6.798;2024-01-25T10:27:21;6.60;99.90
21830;DHT22;11077;50.264;6.798;2024-01-25T10:29:49;6.60;99.90
21830;DHT22;11077;50.264;6.798;2024-01-25T10:32:17;6.70;99.90
21830;DHT22;11077;50.264;6.798;2024-01-25T10:34:45;6.80;99.90
21830;DHT22;11077;50.264;6.798;2024-01-25T10:37:14;7.00;99.90
21830;DHT22;11077;50.264;6.798;2024-01-25T10:39:44;7.30;99.90
21830;DHT22;11077;50.264;6.798;2024-01-25T10:42:12;7.40;99.90
21830;DHT22;11077;50.264;6.798;2024-01-25T10:44:39;7.50;99.90
21830;DHT22;11077;50.264;6.798;2024-01-25T10:47:07;7.50;99.90
21830;DHT22;11077;50.264;6.798;2024-01-25T10:49:35;7.50;99.90
21830;DHT22;11077;50.264;6.798;2024-01-25T10:52:04;7.40;99.90
21830;DHT22;11077;50.264;6.798;2024-01-25T10:54:34;7.40;99.90
21830;DHT22;11077;50.264;6.798;2024-01-25T10:57:02;7.40;99.90
21830;DHT22;11077;50.264;6.798;2024-01-25T10:59:32;7.40;99.90
21830;DHT22;11077;50.264;6.798;2024-01-25T11:02:00;7.50;99.90
21830;DHT22;11077;50.264;6.798;2024-01-25T11:04:29;7.60;99.90
21830;DHT22;11077;50.264;6.798;2024-01-25T11:07:06;7.70;99.90
21830;DHT22;11077;50.264;6.798;2024-01-25T11:09:36;7.80;99.90
21830;DHT22;11077;50.264;6.798;2024-01-25T11:12:11;7.80;99.90
21830;DHT22;11077;50.264;6.798;2024-01-25T11:14:40;7.90;99.90
21830;DHT22;11077;50.264;6.798;2024-01-25T11:17:19;7.90;99.90
21830;DHT22;11077;50.264;6.798;2024-01-25T11:19:48;8.00;99.90
21830;DHT22;11077;50.264;6.798;2024-01-25T11:22:16;8.00;99.90
21830;DHT22;11077;50.264;6.798;2024-01-25T11:24:44;8.00;99.90
21830;DHT22;11077;50.264;6.798;2024-01-25T11:27:14;8.00;99.90
21830;DHT22;11077;50.264;6.798;2024-01-25T11:29:41;8.10;99.90
21830;DHT22;11077;50.264;6.798;2024-01-25T11:32:11;8.20;99.90
21830;DHT22;11077;50.264;6.798;2024-01-25T11:34:39;8.40;99.90
21830;DHT22;11077;50.264;6.798;2024-01-25T11:37:06;8.50;99.90
21830;DHT22;11077;50.264;6.798;2024-01-25T11:39:34;8.60;99.90
21830;DHT22;11077;50.264;6.798;2024-01-25T11:42:03;8.60;99.90
21830;DHT22;11077;50.264;6.798;2024-01-25T11:44:31;8.70;99.90
21830;DHT22;11077;50.264;6.798;2024-01-25T11:46:58;8.80;99.90
21830;DHT22;11077;50.264;6.798;2024-01-25T11:49:25;8.80;99.90
21830;DHT22;11077;50.264;6.798;2024-01-25T11:51:53;8.90;99.90
21830;DHT22;11077;50.264;6.798;2024-01-25T11:54:20;8.90;99.90
21830;DHT22;11077;50.264;6.798;2024-01-25T11:56:48;8.90;99.90
21830;DHT22;11077;50.264;6.798;2024-01-25T11:59:17;8.90;99.90
21830;DHT22;11077;50.264;6.798;2024-01-25T12:01:44;8.90;99.90
21830;DHT22;11077;50.264;6.798;2024-01-25T12:04:12;8.80;99.90
21830;DHT22;11077;50.264;6.798;2024-01-25T12:06:39;8.90;99.90
21830;DHT22;11077;50.264;6.798;2024-01-25T12:09:08;8.80;99.90
21830;DHT22;11077;50.264;6.798;2024-01-25T12:11:35;8.90;99.90
21830;DHT22;11077;50.264;6.798;2024-01-25T12:14:02;8.90;99.90
21830;DHT22;11077;50.264;6.798;2024-01-25T12:16:31;8.80;99.90
21830;DHT22;11077;50.264;6.798;2024-01-25T12:18:58;8.70;99.90
21830;DHT22;11077;50.264;6.798;2024-01-25T12:21:26;8.70;99.90
21830;DHT22;11077;50.264;6.798;2024-01-25T12:23:53;8.70;99.90
21830;DHT22;11077;50.264;6.798;2024-01-25T12:26:20;8.60;99.90
21830;DHT22;11077;50.264;6.798;2024-01-25T12:28:48;8.50;99.90
21830;DHT22;11077;50.264;6.798;2024-01-25T12:31:15;8.50;99.90
21830;DHT22;11077;50.264;6.798;2024-01-25T12:33:45;8.50;99.90
21830;DHT22;11077;50.264;6.798;2024-01-25T12:36:12;8.50;99.90
21830;DHT22;11077;50.264;6.798;2024-01-25T12:38:40;8.50;99.90
21830;DHT22;11077;50.264;6.798;2024-01-25T12:41:07;8.50;99.90
21830;DHT22;11077;50.264;6.798;2024-01-25T12:43:34;8.40;99.90
21830;DHT22;11077;50.264;6.798;2024-01-25T12:46:01;8.40;99.90
21830;DHT22;11077;50.264;6.798;2024-01-25T12:48:29;8.40;99.90
21830;DHT22;11077;50.264;6.798;2024-01-25T12:50:58;8.40;99.90
21830;DHT22;11077;50.264;6.798;2024-01-25T12:53:25;8.40;99.90
21830;DHT22;11077;50.264;6.798;2024-01-25T12:55:53;8.40;99.90
21830;DHT22;11077;50.264;6.798;2024-01-25T12:58:20;8.30;99.90
21830;DHT22;11077;50.264;6.798;2024-01-25T13:00:47;8.30;99.90
21830;DHT22;11077;50.264;6.798;2024-01-25T13:03:15;8.30;99.90
21830;DHT22;11077;50.264;6.798;2024-01-25T13:05:42;8.30;99.90
21830;DHT22;11077;50.264;6.798;2024-01-25T13:08:11;8.30;99.90
21830;DHT22;11077;50.264;6.798;2024-01-25T13:10:38;8.30;99.90
21830;DHT22;11077;50.264;6.798;2024-01-25T13:13:05;8.40;99.90
21830;DHT22;11077;50.264;6.798;2024-01-25T13:15:32;8.30;99.90
21830;DHT22;11077;50.264;6.798;2024-01-25T13:18:00;8.30;99.90
21830;DHT22;11077;50.264;6.798;2024-01-25T13:20:27;8.30;99.90
21830;DHT22;11077;50.264;6.798;2024-01-25T13:22:55;8.30;99.90
21830;DHT22;11077;50.264;6.798;2024-01-25T13:25:23;8.30;99.90
21830;DHT22;11077;50.264;6.798;2024-01-25T13:27:51;8.30;99.90
21830;DHT22;11077;50.264;6.798;2024-01-25T13:30:18;8.20;99.90
21830;DHT22;11077;50.264;6.798;2024-01-25T13:32:46;8.20;99.90
21830;DHT22;11077;50.264;6.798;2024-01-25T13:35:13;8.20;99.90
21830;DHT22;11077;50.264;6.798;2024-01-25T13:37:40;8.20;99.90
21830;DHT22;11077;50.264;6.798;2024-01-25T13:40:08;8.20;99.90
21830;DHT22;11077;50.264;6.798;2024-01-25T13:42:37;8.20;99.90
21830;DHT22;11077;50.264;6.798;2024-01-25T13:45:06;8.20;99.90
21830;DHT22;11077;50.264;6.798;2024-01-25T13:47:34;8.20;99.90
21830;DHT22;11077;50.264;6.798;2024-01-25T13:50:01;8.20;99.90
21830;DHT22;11077;50.264;6.798;2024-01-25T13:52:28;8.20;99.90
21830;DHT22;11077;50.264;6.798;2024-01-25T13:54:56;8.20;99.90
21830;DHT22;11077;50.264;6.798;2024-01-25T13:57:23;8.20;99.90
21830;DHT22;11077;50.264;6.798;2024-01-25T13:59:52;8.10;99.90
21830;DHT22;11077;50.264;6.798;2024-01-25T14:02:19;8.20;99.90
21830;DHT22;11077;50.264;6.798;2024-01-25T14:04:46;8.10;99.90
21830;DHT22;11077;50.264;6.798;2024-01-25T14:07:15;8.10;99.90
21830;DHT22;11077;50.264;6.798;2024-01-25T14:09:42;8.00;99.90
21830;DHT22;11077;50.264;6.798;2024-01-25T14:12:09;8.00;99.90
21830;DHT22;11077;50.264;6.798;2024-01-25T14:14:38;8.00;99.90
21830;DHT22;11077;50.264;6.798;2024-01-25T14:17:07;8.00;99.90
21830;DHT22;11077;50.264;6.798;2024-01-25T14:19:34;8.00;99.90
21830;DHT22;11077;50.264;6.798;2024-01-25T14:22:02;7.90;99.90
21830;DHT22;11077;50.264;6.798;2024-01-25T14:24:29;7.90;99.90
21830;DHT22;11077;50.264;6.798;2024-01-25T14:26:56;7.90;99.90
21830;DHT22;11077;50.264;6.798;2024-01-25T14:29:24;7.90;99.90
21830;DHT22;11077;50.264;6.798;2024-01-25T14:31:51;7.90;99.90
21830;DHT22;11077;50.264;6.798;2024-01-25T14:34:22;7.80;99.90
21830;DHT22;11077;50.264;6.798;2024-01-25T14:36:52;7.80;99.90
21830;DHT22;11077;50.264;6.798;2024-01-25T14:39:19;7.80;99.90
21830;DHT22;11077;50.264;6.798;2024-01-25T14:41:47;7.80;99.90
21830;DHT22;11077;50.264;6.798;2024-01-25T14:44:49;7.80;99.90
21830;DHT22;11077;50.264;6.798;2024-01-25T14:47:16;7.80;99.90
21830;DHT22;11077;50.264;6.798;2024-01-25T14:49:50;7.80;99.90
21830;DHT22;11077;50.264;6.798;2024-01-25T14:52:18;7.80;99.90
21830;DHT22;11077;50.264;6.798;2024-01-25T14:54:45;7.70;99.90
21830;DHT22;11077;50.264;6.798;2024-01-25T14:57:12;7.70;99.90
21830;DHT22;11077;50.264;6.798;2024-01-25T14:59:40;7.70;99.90
21830;DHT22;11077;50.264;6.798;2024-01-25T15:02:08;7.70;99.90
21830;DHT22;11077;50.264;6.798;2024-01-25T15:04:35;7.60;99.90
21830;DHT22;11077;50.264;6.798;2024-01-25T15:07:05;7.60;99.90
21830;DHT22;11077;50.264;6.798;2024-01-25T15:09:32;7.60;99.90
21830;DHT22;11077;50.264;6.798;2024-01-25T15:11:59;7.70;99.90
21830;DHT22;11077;50.264;6.798;2024-01-25T15:14:26;7.70;99.90
21830;DHT22;11077;50.264;6.798;2024-01-25T15:16:54;7.70;99.90
21830;DHT22;11077;50.264;6.798;2024-01-25T15:19:21;7.60;99.90
21830;DHT22;11077;50.264;6.798;2024-01-25T15:21:49;7.60;99.90
21830;DHT22;11077;50.264;6.798;2024-01-25T15:24:17;7.60;99.90
21830;DHT22;11077;50.264;6.798;2024-01-25T15:26:45;7.50;99.90
21830;DHT22;11077;50.264;6.798;2024-01-25T15:29:13;7.50;99.90
21830;DHT22;11077;50.264;6.798;2024-01-25T15:31:40;7.50;99.90
21830;DHT22;11077;50.264;6.798;2024-01-25T15:34:07;7.50;99.90
21830;DHT22;11077;50.264;6.798;2024-01-25T15:36:35;7.50;99.90
21830;DHT22;11077;50.264;6.798;2024-01-25T15:39:02;7.50;99.90
21830;DHT22;11077;50.264;6.798;2024-01-25T15:41:31;7.50;99.90
21830;DHT22;11077;50.264;6.798;2024-01-25T15:43:58;7.50;99.90
21830;DHT22;11077;50.264;6.798;2024-01-25T15:46:25;7.50;99.90
21830;DHT22;11077;50.264;6.798;2024-01-25T15:48:53;7.50;99.90
21830;DHT22;11077;50.264;6.798;2024-01-25T15:51:21;7.50;99.90